Time;durP1;ratioP1;P1;durP2;ratioP2;P2;SDS_P1;SDS_P2;PMS_P1;PMS_P2;Temp;Humidity;BMP_temperature;BMP_pressure;BME280_temperature;BME280_humidity;BME280_pressure;Samples;Min_cycle;Max_cycle;Signal;HPM_P1;HPM_P2
2023/04/30 00:01:49;;;;;;;11.82;7.57;;;21.60;53.30;;;;;;4822006;29;20050;-70
2023/04/30 00:04:15;;;;;;;13.45;6.55;;;21.70;53.30;;;;;;4822076;29;20483;-70
2023/04/30 00:06:41;;;;;;;14.20;6.78;;;21.60;53.30;;;;;;4822056;29;20046;-70
2023/04/30 00:09:07;;;;;;;17.67;7.38;;;21.50;53.20;;;;;;4822168;29;20038;-70
2023/04/30 00:11:33;;;;;;;12.07;7.10;;;21.50;53.30;;;;;;4821939;29;20038;-70
2023/04/30 00:13:59;;;;;;;10.02;6.65;;;21.50;53.40;;;;;;4821609;29;20353;-70
2023/04/30 00:16:25;;;;;;;10.80;6.65;;;21.50;53.40;;;;;;4821964;29;20078;-70
2023/04/30 00:18:51;;;;;;;11.38;6.95;;;21.50;53.40;;;;;;4821940;29;20049;-70
2023/04/30 00:21:17;;;;;;;13.30;7.35;;;21.40;53.40;;;;;;4822797;29;20091;-70
2023/04/30 00:23:44;;;;;;;12.63;6.72;;;21.40;53.40;;;;;;4824135;29;20050;-70
2023/04/30 00:26:10;;;;;;;13.45;7.05;;;21.40;53.40;;;;;;4823925;29;20106;-70
2023/04/30 00:28:36;;;;;;;13.18;7.43;;;21.40;53.40;;;;;;4808974;29;20376;-70
2023/04/30 00:31:05;;;;;;;13.95;7.63;;;21.30;53.40;;;;;;4825181;29;20038;-70
2023/04/30 00:33:31;;;;;;;12.10;7.05;;;21.30;53.50;;;;;;4823655;29;20047;-70
2023/04/30 00:35:58;;;;;;;16.77;7.38;;;21.40;53.30;;;;;;4823951;29;20038;-70
2023/04/30 00:38:24;;;;;;;20.98;8.13;;;21.30;53.30;;;;;;4824918;29;20078;-70
2023/04/30 00:40:50;;;;;;;12.32;7.28;;;21.30;53.30;;;;;;4824934;29;20098;-70
2023/04/30 00:43:16;;;;;;;13.88;7.82;;;21.40;53.10;;;;;;4823538;29;20053;-70
2023/04/30 00:45:42;;;;;;;11.15;7.18;;;21.40;53.10;;;;;;4823721;29;20246;-70
2023/04/30 00:48:08;;;;;;;20.98;9.07;;;21.30;53.00;;;;;;4823481;29;20065;-69
2023/04/30 00:50:35;;;;;;;14.07;7.72;;;21.40;53.10;;;;;;4825054;29;20038;-70
2023/04/30 00:53:02;;;;;;;17.08;8.20;;;21.30;53.00;;;;;;4823675;29;20113;-69
2023/04/30 00:55:28;;;;;;;11.98;8.10;;;21.40;52.80;;;;;;4823337;29;20050;-69
2023/04/30 00:57:55;;;;;;;13.18;8.13;;;21.50;52.90;;;;;;4824767;29;20191;-70
2023/04/30 01:00:21;;;;;;;13.77;7.95;;;21.30;52.80;;;;;;4822933;29;20050;-70
2023/04/30 01:02:48;;;;;;;13.82;7.25;;;21.40;52.80;;;;;;4838421;29;20137;-70
2023/04/30 01:05:14;;;;;;;18.00;8.40;;;21.40;52.70;;;;;;4823151;29;20428;-70
2023/04/30 01:07:44;;;;;;;15.90;8.50;;;21.30;52.70;;;;;;4808067;29;20437;-70
2023/04/30 01:10:12;;;;;;;17.77;7.93;;;21.30;52.70;;;;;;4822955;29;20045;-70
2023/04/30 01:12:47;;;;;;;15.73;9.30;;;21.30;52.60;;;;;;4824480;29;20038;-70
2023/04/30 01:15:30;;;;;;;13.85;8.82;;;21.40;52.60;;;;;;4823209;29;20080;-70
2023/04/30 01:18:06;;;;;;;17.73;8.90;;;21.30;52.70;;;;;;4824150;29;20102;-70
2023/04/30 01:20:33;;;;;;;15.38;8.60;;;21.20;52.60;;;;;;4823816;29;20053;-70
2023/04/30 01:23:18;;;;;;;14.98;8.77;;;21.30;52.80;;;;;;4823960;29;20122;-69
2023/04/30 01:26:13;;;;;;;17.13;7.45;;;21.30;52.80;;;;;;4839344;29;20049;-70
2023/04/30 01:28:42;;;;;;;16.20;8.25;;;21.20;52.80;;;;;;4785209;30;20077;-70
2023/04/30 01:31:16;;;;;;;15.00;8.50;;;21.10;52.80;;;;;;4785265;30;20384;-70
2023/04/30 01:33:43;;;;;;;14.68;7.80;;;21.10;52.80;;;;;;4785202;29;20043;-70
2023/04/30 01:36:42;;;;;;;12.65;7.28;;;21.00;52.80;;;;;;4785147;30;20042;-70
2023/04/30 01:39:30;;;;;;;15.48;6.88;;;21.00;52.80;;;;;;4785204;30;20051;-70
2023/04/30 01:42:15;;;;;;;15.00;7.53;;;21.10;52.90;;;;;;4795107;29;20060;-70
2023/04/30 01:44:56;;;;;;;9.63;5.97;;;21.00;52.80;;;;;;4767493;30;20535;-70
2023/04/30 01:48:07;;;;;;;7.97;5.28;;;21.10;52.80;;;;;;4767407;30;20040;-70
2023/04/30 01:50:42;;;;;;;14.25;6.43;;;21.10;52.70;;;;;;4767507;30;20059;-69
2023/04/30 01:53:12;;;;;;;10.63;7.30;;;21.00;52.50;;;;;;4767505;30;20471;-70
2023/04/30 01:55:50;;;;;;;10.82;7.40;;;20.90;52.40;;;;;;4767407;30;20040;-70
2023/04/30 01:58:19;;;;;;;17.73;7.40;;;21.10;52.40;;;;;;4752500;30;20048;-69
2023/04/30 02:00:45;;;;;;;12.05;6.47;;;21.00;52.30;;;;;;4767081;30;20134;-70
2023/04/30 02:03:11;;;;;;;11.48;7.15;;;21.10;52.30;;;;;;4767178;30;20064;-71
2023/04/30 02:05:37;;;;;;;15.57;7.60;;;21.10;52.30;;;;;;4807417;29;20080;-70
2023/04/30 02:08:03;;;;;;;15.70;6.57;;;21.10;52.20;;;;;;4823620;29;20070;-70
2023/04/30 02:10:29;;;;;;;10.90;6.53;;;21.20;52.20;;;;;;4823479;29;20035;-70
2023/04/30 02:12:55;;;;;;;12.52;6.03;;;21.10;52.20;;;;;;4823708;29;20046;-70
2023/04/30 02:15:22;;;;;;;13.90;7.25;;;21.10;52.20;;;;;;4837552;29;20064;-70
2023/04/30 02:17:48;;;;;;;10.98;6.05;;;21.00;52.10;;;;;;4837173;29;20046;-70
2023/04/30 02:20:14;;;;;;;18.35;7.05;;;21.10;52.20;;;;;;4837309;29;20404;-70
2023/04/30 02:22:40;;;;;;;11.40;6.75;;;21.00;52.20;;;;;;4837196;29;20042;-70
2023/04/30 02:25:06;;;;;;;17.27;7.07;;;21.00;52.20;;;;;;4826246;29;20152;-70
2023/04/30 02:27:33;;;;;;;13.30;7.32;;;21.00;52.20;;;;;;4841594;29;20113;-70
2023/04/30 02:30:00;;;;;;;13.10;6.53;;;21.00;52.20;;;;;;4841473;29;20045;-70
2023/04/30 02:32:26;;;;;;;10.27;6.47;;;20.80;52.20;;;;;;4855558;29;20125;-70
2023/04/30 02:34:52;;;;;;;11.15;6.22;;;20.90;52.30;;;;;;4841315;29;20042;-70
2023/04/30 02:37:18;;;;;;;10.30;6.13;;;20.90;52.30;;;;;;4841380;29;20410;-70
2023/04/30 02:39:44;;;;;;;11.18;6.30;;;20.80;52.20;;;;;;4840933;29;20034;-70
2023/04/30 02:42:10;;;;;;;10.10;6.18;;;20.90;52.30;;;;;;4841354;29;20041;-70
2023/04/30 02:44:36;;;;;;;12.20;7.22;;;20.80;52.30;;;;;;4841408;29;20041;-70
2023/04/30 02:47:03;;;;;;;10.90;6.50;;;20.80;52.20;;;;;;4839216;29;20505;-70
2023/04/30 02:49:30;;;;;;;14.10;7.03;;;20.90;52.20;;;;;;4839623;29;20124;-70
2023/04/30 02:51:56;;;;;;;9.38;6.28;;;20.80;52.10;;;;;;4841038;29;20447;-70
2023/04/30 02:54:22;;;;;;;12.35;6.90;;;20.90;52.10;;;;;;4839997;29;20042;-70
2023/04/30 02:56:48;;;;;;;10.18;6.78;;;20.90;52.00;;;;;;4824555;29;20125;-70
2023/04/30 02:59:14;;;;;;;13.35;6.65;;;20.80;51.90;;;;;;4840823;29;20623;-70
2023/04/30 03:01:40;;;;;;;13.55;6.57;;;20.80;51.90;;;;;;4839298;29;20061;-70
2023/04/30 03:04:06;;;;;;;9.77;6.40;;;20.80;51.90;;;;;;4839659;29;20416;-70
2023/04/30 03:06:32;;;;;;;9.48;6.93;;;20.80;51.80;;;;;;4840740;29;20052;-70
2023/04/30 03:08:59;;;;;;;14.55;7.03;;;20.90;51.90;;;;;;4839718;29;20049;-70
2023/04/30 03:11:26;;;;;;;13.98;7.25;;;20.90;51.80;;;;;;4839241;29;20038;-70
2023/04/30 03:13:52;;;;;;;12.38;6.68;;;20.80;51.70;;;;;;4839656;29;20532;-69
2023/04/30 03:16:20;;;;;;;12.35;7.32;;;20.90;51.70;;;;;;4840908;29;20038;-69
2023/04/30 03:18:47;;;;;;;16.77;7.28;;;20.90;51.70;;;;;;4840676;29;20053;-70
2023/04/30 03:21:14;;;;;;;11.52;6.25;;;20.90;51.60;;;;;;4837527;29;20037;-70
2023/04/30 03:23:40;;;;;;;11.18;6.20;;;20.90;51.60;;;;;;4839249;29;20050;-69
2023/04/30 03:26:07;;;;;;;13.07;6.25;;;20.80;51.60;;;;;;4840616;29;20045;-70
2023/04/30 03:28:34;;;;;;;9.68;5.95;;;20.80;51.60;;;;;;4840734;29;20042;-70
2023/04/30 03:31:04;;;;;;;15.98;6.97;;;20.80;51.60;;;;;;4840253;29;20055;-70
2023/04/30 03:33:31;;;;;;;11.75;6.10;;;20.70;51.60;;;;;;4838336;29;20526;-70
2023/04/30 03:35:57;;;;;;;13.45;6.72;;;20.80;51.60;;;;;;4840325;29;20061;-70
2023/04/30 03:38:23;;;;;;;10.40;7.05;;;20.80;51.60;;;;;;4833119;29;20482;-70
2023/04/30 03:40:49;;;;;;;12.27;6.75;;;20.50;51.50;;;;;;4835979;29;20046;-70
2023/04/30 03:43:15;;;;;;;12.23;7.43;;;20.70;51.60;;;;;;4822253;29;20039;-70
2023/04/30 03:45:41;;;;;;;9.98;6.25;;;20.70;51.60;;;;;;4822338;29;20121;-70
2023/04/30 03:48:07;;;;;;;11.68;6.18;;;20.70;51.80;;;;;;4822438;29;20458;-70
2023/04/30 03:50:33;;;;;;;13.13;6.22;;;20.80;51.40;;;;;;4835737;29;20121;-70
2023/04/30 03:53:00;;;;;;;41.40;16.02;;;21.10;50.90;;;;;;4820953;29;20049;-70
2023/04/30 03:55:26;;;;;;;23.42;8.60;;;21.30;50.50;;;;;;4820998;29;20435;-70
2023/04/30 03:57:53;;;;;;;14.18;7.22;;;21.40;50.30;;;;;;4837221;29;20042;-70
2023/04/30 04:00:19;;;;;;;9.73;6.40;;;21.50;50.00;;;;;;4824112;29;20065;-70
2023/04/30 04:02:49;;;;;;;10.63;6.15;;;21.50;49.80;;;;;;4839807;29;20064;-70
2023/04/30 04:05:15;;;;;;;13.38;5.70;;;21.60;49.70;;;;;;4839549;29;20042;-70
2023/04/30 04:07:41;;;;;;;15.13;10.77;;;21.60;49.80;;;;;;4825689;29;20064;-71
2023/04/30 04:10:07;;;;;;;16.30;10.38;;;21.60;49.50;;;;;;4839695;29;20047;-71
2023/04/30 04:12:34;;;;;;;10.50;7.63;;;21.50;49.80;;;;;;4842556;29;20045;-70
2023/04/30 04:15:00;;;;;;;10.93;6.70;;;21.40;52.90;;;;;;4843874;29;20049;-69
2023/04/30 04:17:26;;;;;;;13.88;6.25;;;21.70;54.90;;;;;;4842362;29;20098;-71
2023/04/30 04:19:52;;;;;;;11.05;5.65;;;22.10;58.50;;;;;;4842618;29;20082;-70
2023/04/30 04:22:18;;;;;;;10.18;5.38;;;22.20;55.60;;;;;;4842045;29;20054;-70
2023/04/30 04:24:46;;;;;;;8.77;5.07;;;22.50;55.90;;;;;;4842464;29;20120;-70
2023/04/30 04:27:18;;;;;;;10.27;4.75;;;22.50;51.00;;;;;;4842153;29;20447;-70
2023/04/30 04:29:45;;;;;;;10.98;4.57;;;22.30;49.60;;;;;;4842246;29;20030;-70
2023/04/30 04:32:11;;;;;;;6.03;4.20;;;22.40;48.00;;;;;;4826659;29;20038;-69
2023/04/30 04:34:39;;;;;;;7.28;5.28;;;22.30;47.00;;;;;;4841846;29;20134;-68
2023/04/30 04:37:05;;;;;;;9.27;5.50;;;22.20;46.90;;;;;;4825969;29;20039;-69
2023/04/30 04:39:31;;;;;;;6.75;5.05;;;22.10;47.20;;;;;;4824827;29;20117;-69
2023/04/30 04:41:57;;;;;;;11.35;5.72;;;21.90;47.60;;;;;;4824590;29;20125;-69
2023/04/30 04:44:24;;;;;;;11.98;5.57;;;21.80;48.00;;;;;;4823455;29;20038;-70
2023/04/30 04:46:52;;;;;;;8.82;5.18;;;21.80;48.40;;;;;;4823726;29;20038;-69
2023/04/30 04:49:19;;;;;;;7.85;4.75;;;21.80;48.90;;;;;;4823610;29;20035;-69
2023/04/30 04:51:45;;;;;;;6.15;4.43;;;21.90;49.40;;;;;;4838755;29;20091;-70
2023/04/30 04:54:11;;;;;;;8.40;4.32;;;21.80;49.40;;;;;;4824562;29;20042;-70
2023/04/30 04:56:38;;;;;;;7.05;4.28;;;21.90;49.80;;;;;;4823568;29;20046;-70
2023/04/30 04:59:04;;;;;;;6.80;4.93;;;22.00;49.70;;;;;;4823430;29;20039;-70
2023/04/30 05:01:31;;;;;;;8.70;4.53;;;22.00;49.50;;;;;;4823388;29;20098;-70
2023/04/30 05:03:57;;;;;;;11.35;5.05;;;22.00;49.50;;;;;;4824763;29;20142;-70
2023/04/30 05:06:23;;;;;;;7.97;4.07;;;22.00;49.20;;;;;;4823350;29;20490;-68
2023/04/30 05:08:49;;;;;;;6.72;3.92;;;22.10;50.20;;;;;;4823980;29;20090;-68
2023/04/30 05:11:15;;;;;;;13.98;2.67;;;22.20;53.80;;;;;;4824051;29;20033;-65
2023/04/30 05:13:41;;;;;;;6.78;1.83;;;22.40;54.30;;;;;;4823172;29;20505;-68
2023/04/30 05:16:07;;;;;;;2.80;1.50;;;22.60;54.00;;;;;;4824237;29;20042;-67
2023/04/30 05:18:33;;;;;;;5.25;1.90;;;22.60;53.00;;;;;;4824694;29;20038;-67
2023/04/30 05:20:59;;;;;;;7.53;4.40;;;22.70;53.70;;;;;;4825766;29;20046;-66
2023/04/30 05:23:27;;;;;;;8.95;4.20;;;22.90;50.50;;;;;;4824147;29;20042;-68
2023/04/30 05:25:54;;;;;;;6.97;3.85;;;22.80;49.50;;;;;;4823072;29;20030;-67
2023/04/30 05:28:20;;;;;;;9.15;4.28;;;22.60;44.10;;;;;;4822698;29;20094;-68
2023/04/30 05:30:46;;;;;;;9.00;4.70;;;22.60;44.50;;;;;;4824225;29;20038;-68
2023/04/30 05:33:12;;;;;;;9.70;5.00;;;22.60;47.50;;;;;;4824159;29;20058;-68
2023/04/30 05:35:38;;;;;;;11.30;5.55;;;22.50;46.30;;;;;;4824246;29;20228;-65
2023/04/30 05:38:04;;;;;;;8.93;5.28;;;22.50;44.10;;;;;;4823953;29;20166;-66
2023/04/30 05:40:31;;;;;;;8.27;4.53;;;22.60;44.60;;;;;;4823937;29;20621;-67
2023/04/30 05:42:57;;;;;;;9.77;4.70;;;22.60;45.60;;;;;;4823437;29;20035;-67
2023/04/30 05:45:23;;;;;;;8.95;4.50;;;22.60;43.70;;;;;;4838165;29;20058;-66
2023/04/30 05:47:49;;;;;;;10.38;5.28;;;22.60;44.10;;;;;;4824192;29;20166;-67
2023/04/30 05:50:15;;;;;;;7.15;4.38;;;22.60;43.60;;;;;;4823880;29;20066;-66
2023/04/30 05:52:41;;;;;;;8.55;4.90;;;22.60;44.50;;;;;;4823800;29;20054;-67
2023/04/30 05:55:08;;;;;;;8.45;5.85;;;22.70;43.70;;;;;;4823797;29;20177;-67
2023/04/30 05:57:34;;;;;;;9.93;4.53;;;22.60;44.00;;;;;;4825820;29;20496;-68
2023/04/30 06:00:00;;;;;;;9.43;3.95;;;22.60;48.60;;;;;;4814985;29;20137;-69
2023/04/30 06:02:26;;;;;;;7.30;4.22;;;22.70;50.20;;;;;;4817864;29;20496;-67
2023/04/30 06:04:52;;;;;;;7.55;4.40;;;22.70;50.80;;;;;;4805691;29;20038;-68
2023/04/30 06:07:18;;;;;;;7.13;3.97;;;22.70;51.00;;;;;;4804179;29;20042;-67
2023/04/30 06:09:45;;;;;;;6.85;4.13;;;22.80;51.20;;;;;;4836687;29;20054;-68
2023/04/30 06:12:11;;;;;;;7.18;3.95;;;22.70;51.40;;;;;;4823519;29;20216;-68
2023/04/30 06:14:37;;;;;;;10.75;4.22;;;22.60;51.40;;;;;;4806258;29;20572;-68
2023/04/30 06:17:03;;;;;;;10.05;4.43;;;22.80;52.10;;;;;;4820600;29;20158;-68
2023/04/30 06:19:29;;;;;;;6.60;3.42;;;22.60;52.20;;;;;;4823626;29;20042;-66
2023/04/30 06:21:55;;;;;;;5.20;3.13;;;22.80;53.30;;;;;;4822939;29;20061;-69
2023/04/30 06:24:21;;;;;;;6.30;3.50;;;22.70;55.10;;;;;;4823382;29;20095;-67
2023/04/30 06:26:47;;;;;;;5.47;3.63;;;22.80;54.60;;;;;;4823392;29;20050;-66
2023/04/30 06:29:13;;;;;;;5.22;3.63;;;22.80;54.20;;;;;;4823556;29;20484;-68
2023/04/30 06:31:39;;;;;;;5.43;3.03;;;22.60;54.20;;;;;;4820510;29;20035;-68
2023/04/30 06:34:05;;;;;;;4.35;2.33;;;22.70;54.50;;;;;;4811736;29;20031;-68
2023/04/30 06:36:31;;;;;;;2.97;2.30;;;22.70;54.50;;;;;;4833358;29;20050;-67
2023/04/30 06:38:57;;;;;;;4.32;2.20;;;22.70;54.50;;;;;;4823996;29;20487;-68
2023/04/30 06:41:23;;;;;;;3.38;1.95;;;22.70;54.40;;;;;;4822827;29;20039;-66
2023/04/30 06:43:49;;;;;;;4.85;2.30;;;22.70;54.30;;;;;;4836805;29;20057;-67
2023/04/30 06:46:15;;;;;;;3.30;1.80;;;22.70;53.40;;;;;;4822958;29;20563;-67
2023/04/30 06:48:41;;;;;;;2.97;1.67;;;22.70;52.60;;;;;;4822957;29;20058;-67
2023/04/30 06:51:08;;;;;;;2.97;1.73;;;22.80;52.80;;;;;;4823410;29;20444;-68
2023/04/30 06:53:34;;;;;;;3.63;1.80;;;22.70;53.20;;;;;;4823170;29;20193;-69
2023/04/30 06:56:00;;;;;;;6.97;1.67;;;22.80;51.10;;;;;;4822721;29;20048;-68
2023/04/30 06:58:26;;;;;;;2.55;1.73;;;22.70;53.10;;;;;;4823126;29;20053;-67
2023/04/30 07:00:52;;;;;;;5.63;2.28;;;22.60;52.30;;;;;;4822602;29;20406;-68
2023/04/30 07:03:18;;;;;;;4.18;1.90;;;22.70;53.80;;;;;;4821374;29;20127;-67
2023/04/30 07:05:45;;;;;;;2.63;1.90;;;22.90;54.60;;;;;;4823011;29;20042;-67
2023/04/30 07:08:11;;;;;;;2.15;1.95;;;22.80;53.40;;;;;;4822799;29;20043;-65
2023/04/30 07:10:37;;;;;;;2.53;1.35;;;22.70;54.20;;;;;;4822602;29;20042;-67
2023/04/30 07:13:03;;;;;;;3.92;1.52;;;22.70;52.90;;;;;;4822758;29;20034;-66
2023/04/30 07:15:29;;;;;;;3.90;1.83;;;22.70;52.00;;;;;;4822727;29;20117;-68
2023/04/30 07:17:56;;;;;;;3.92;1.70;;;22.90;55.10;;;;;;4822857;29;20046;-67
2023/04/30 07:20:22;;;;;;;4.63;1.70;;;22.90;55.50;;;;;;4823081;29;20403;-66
2023/04/30 07:22:48;;;;;;;1.67;1.30;;;22.90;52.50;;;;;;4822532;29;20129;-66
2023/04/30 07:25:14;;;;;;;2.10;1.05;;;22.80;50.30;;;;;;4822873;29;20125;-67
2023/04/30 07:27:40;;;;;;;2.83;1.17;;;22.80;48.60;;;;;;4822584;29;20149;-68
2023/04/30 07:30:09;;;;;;;1.90;1.08;;;22.90;53.00;;;;;;4824935;29;20035;-67
2023/04/30 07:32:36;;;;;;;2.55;1.60;;;22.90;51.10;;;;;;4821776;29;20035;-67
2023/04/30 07:35:03;;;;;;;2.67;1.70;;;22.90;50.70;;;;;;4820919;29;20121;-67
2023/04/30 07:37:29;;;;;;;2.95;1.25;;;23.00;53.00;;;;;;4822385;29;20098;-68
2023/04/30 07:39:55;;;;;;;3.60;1.38;;;22.90;52.80;;;;;;4822357;29;20050;-67
2023/04/30 07:42:22;;;;;;;1.75;1.40;;;23.00;52.80;;;;;;4836135;29;20045;-67
2023/04/30 07:44:48;;;;;;;4.97;2.30;;;23.00;50.10;;;;;;4822326;29;20436;-67
2023/04/30 07:47:14;;;;;;;3.75;1.58;;;23.00;52.20;;;;;;4822449;29;20031;-66
2023/04/30 07:49:40;;;;;;;3.67;1.05;;;23.00;53.70;;;;;;4820930;29;20046;-68
2023/04/30 07:52:09;;;;;;;2.55;1.50;;;23.00;51.30;;;;;;4822195;29;20117;-67
2023/04/30 07:54:37;;;;;;;7.28;1.98;;;23.00;50.30;;;;;;4836079;29;20484;-67
2023/04/30 07:57:04;;;;;;;3.20;1.80;;;22.90;52.00;;;;;;4822181;29;20038;-67
2023/04/30 07:59:30;;;;;;;6.38;1.60;;;23.00;52.40;;;;;;4822261;29;20050;-67
2023/04/30 08:01:56;;;;;;;2.10;1.20;;;23.10;52.20;;;;;;4822068;29;20066;-68
2023/04/30 08:04:22;;;;;;;3.33;1.23;;;23.00;53.30;;;;;;4821998;29;20187;-68
2023/04/30 08:06:49;;;;;;;2.35;1.73;;;23.00;53.40;;;;;;4822089;29;20399;-66
2023/04/30 08:09:15;;;;;;;2.08;1.42;;;23.10;52.20;;;;;;4819377;29;20034;-67
2023/04/30 08:11:41;;;;;;;5.05;1.30;;;23.10;52.90;;;;;;4821618;29;20036;-68
2023/04/30 08:14:07;;;;;;;2.58;1.17;;;23.00;49.30;;;;;;4821993;29;20038;-67
2023/04/30 08:16:33;;;;;;;5.50;1.80;;;23.00;51.30;;;;;;4822126;29;20038;-68
2023/04/30 08:18:59;;;;;;;7.25;1.15;;;23.00;51.30;;;;;;4822386;29;20397;-67
2023/04/30 08:21:29;;;;;;;3.33;1.98;;;23.10;52.80;;;;;;4835882;29;20129;-68
2023/04/30 08:23:56;;;;;;;2.30;1.08;;;23.10;53.10;;;;;;4822007;29;20221;-67
2023/04/30 08:26:22;;;;;;;3.05;1.33;;;23.10;53.00;;;;;;4821937;29;20074;-67
2023/04/30 08:28:48;;;;;;;2.60;1.52;;;23.00;52.50;;;;;;4821897;29;20040;-67
2023/04/30 08:31:14;;;;;;;3.53;1.65;;;23.00;52.90;;;;;;4821886;29;20043;-68
2023/04/30 08:33:40;;;;;;;4.22;1.38;;;23.00;53.30;;;;;;4821409;29;20067;-70
2023/04/30 08:36:06;;;;;;;1.50;1.20;;;23.00;53.30;;;;;;4821833;29;20039;-69
2023/04/30 08:38:32;;;;;;;2.20;1.17;;;23.00;52.50;;;;;;4829338;29;20113;-69
2023/04/30 08:41:12;;;;;;;2.15;1.30;;;23.00;52.70;;;;;;4839990;29;20129;-69
2023/04/30 08:43:39;;;;;;;1.52;1.20;;;23.10;52.70;;;;;;4853894;29;20458;-68
2023/04/30 08:46:06;;;;;;;0.65;0.65;;;23.00;52.20;;;;;;4842795;29;20053;-68
2023/04/30 08:48:32;;;;;;;2.17;1.20;;;23.00;51.20;;;;;;4841927;29;20037;-68
2023/04/30 08:51:02;;;;;;;4.68;2.25;;;23.00;50.60;;;;;;4843422;29;20054;-67
2023/04/30 08:53:30;;;;;;;3.90;2.58;;;23.20;50.60;;;;;;4857233;29;20038;-68
2023/04/30 08:55:57;;;;;;;4.15;1.70;;;23.40;48.60;;;;;;4843340;29;20476;-67
2023/04/30 08:58:23;;;;;;;3.08;2.33;;;23.50;50.80;;;;;;4825443;29;20044;-67
2023/04/30 09:00:49;;;;;;;4.25;2.10;;;23.60;54.40;;;;;;4838770;29;20042;-67
2023/04/30 09:03:15;;;;;;;5.32;1.85;;;23.70;54.30;;;;;;4823325;29;20054;-73
2023/04/30 09:05:41;;;;;;;1.88;1.08;;;23.70;52.90;;;;;;4824508;29;20027;-71
2023/04/30 09:08:08;;;;;;;1.80;1.70;;;23.60;52.00;;;;;;4824303;29;20047;-71
2023/04/30 09:10:34;;;;;;;1.60;1.33;;;23.50;48.70;;;;;;4823344;29;20042;-71
2023/04/30 09:13:05;;;;;;;3.45;2.03;;;23.60;46.40;;;;;;4824304;29;20038;-71
2023/04/30 09:15:33;;;;;;;0.20;0.20;;;23.60;45.40;;;;;;4824368;29;20117;-72
2023/04/30 09:18:16;;;;;;;2.45;1.27;;;23.40;41.00;;;;;;4823106;29;20425;-72
2023/04/30 09:21:01;;;;;;;0.73;0.73;;;23.50;41.50;;;;;;4838299;29;20046;-67
2023/04/30 09:23:28;;;;;;;2.00;1.40;;;23.50;37.20;;;;;;4824254;29;20107;-68
2023/04/30 09:25:55;;;;;;;1.85;1.00;;;23.40;38.50;;;;;;4824107;29;20113;-67
2023/04/30 09:28:26;;;;;;;1.55;1.10;;;23.40;39.00;;;;;;4838316;29;20038;-68
2023/04/30 09:30:52;;;;;;;1.05;0.88;;;23.40;39.70;;;;;;4824828;29;20045;-68
2023/04/30 09:33:19;;;;;;;3.20;1.08;;;23.40;38.90;;;;;;4842453;29;20042;-67
2023/04/30 09:35:45;;;;;;;4.85;1.58;;;23.40;40.90;;;;;;4842434;29;20042;-66
2023/04/30 09:38:26;;;;;;;1.77;1.13;;;23.50;41.70;;;;;;4842494;29;20081;-67
2023/04/30 09:40:52;;;;;;;1.10;0.85;;;23.50;41.80;;;;;;4842098;29;20558;-67
2023/04/30 09:43:18;;;;;;;1.55;1.05;;;23.40;42.50;;;;;;4842167;29;20040;-67
2023/04/30 09:45:47;;;;;;;1.50;1.40;;;23.40;42.80;;;;;;4841057;29;20042;-66
2023/04/30 09:48:32;;;;;;;1.98;1.00;;;23.50;44.30;;;;;;4841136;29;20065;-67
2023/04/30 09:51:02;;;;;;;3.80;1.10;;;23.50;38.70;;;;;;4840898;29;20069;-67
2023/04/30 09:53:28;;;;;;;2.28;0.60;;;23.50;37.40;;;;;;4842386;29;20038;-67
2023/04/30 09:56:00;;;;;;;0.90;0.90;;;23.40;38.30;;;;;;4841481;29;20044;-66
2023/04/30 09:58:28;;;;;;;1.58;1.10;;;23.30;39.00;;;;;;4839533;29;20045;-67
2023/04/30 10:00:58;;;;;;;0.88;0.88;;;23.40;39.70;;;;;;4839267;29;20070;-67
2023/04/30 10:03:24;;;;;;;1.48;0.98;;;23.40;41.20;;;;;;4793997;29;20046;-67
2023/04/30 10:05:51;;;;;;;2.22;1.15;;;23.40;41.50;;;;;;4839277;29;20469;-66
2023/04/30 10:08:42;;;;;;;2.28;1.10;;;23.30;38.60;;;;;;4839464;29;20050;-66
2023/04/30 10:11:15;;;;;;;1.60;1.38;;;23.40;40.40;;;;;;4839485;29;20083;-66
2023/04/30 10:13:43;;;;;;;;;;;23.50;44.30;;;;;;4839932;29;20058;-66
2023/04/30 10:16:28;;;;;;;2.75;1.17;;;23.60;44.20;;;;;;4839201;29;19969;-66
2023/04/30 10:18:58;;;;;;;1.67;1.35;;;23.70;40.70;;;;;;4839527;29;20098;-67
2023/04/30 10:21:26;;;;;;;1.60;1.08;;;23.70;38.00;;;;;;4823791;29;20502;-66
2023/04/30 10:23:53;;;;;;;3.35;1.23;;;23.70;38.00;;;;;;4839111;29;20081;-66
2023/04/30 10:26:19;;;;;;;2.20;1.48;;;23.50;37.30;;;;;;4838951;29;20054;-66
2023/04/30 10:28:49;;;;;;;2.30;1.52;;;23.60;37.20;;;;;;4839213;29;20089;-67
2023/04/30 10:31:16;;;;;;;1.20;1.10;;;23.60;38.60;;;;;;4839074;29;20037;-67
2023/04/30 10:34:03;;;;;;;4.53;1.58;;;23.50;37.80;;;;;;4825317;29;20094;-67
2023/04/30 10:36:43;;;;;;;2.13;1.00;;;23.40;38.10;;;;;;4822569;29;20058;-66
2023/04/30 10:39:11;;;;;;;1.42;1.33;;;23.40;37.50;;;;;;4822106;29;20043;-66
2023/04/30 10:41:38;;;;;;;2.08;1.25;;;23.40;38.50;;;;;;4822988;29;20050;-67
2023/04/30 10:44:06;;;;;;;2.78;1.35;;;23.40;39.50;;;;;;4821411;29;20038;-68
2023/04/30 10:46:35;;;;;;;2.72;1.23;;;23.50;39.10;;;;;;4821119;29;20509;-68
2023/04/30 10:49:01;;;;;;;3.17;1.40;;;23.30;38.30;;;;;;4821200;29;20046;-67
2023/04/30 10:51:53;;;;;;;1.73;1.50;;;23.30;39.90;;;;;;4822347;29;20042;-67
2023/04/30 10:54:27;;;;;;;4.87;1.53;;;23.40;40.40;;;;;;4836157;29;20042;-67
2023/04/30 10:56:57;;;;;;;1.30;1.20;;;23.40;41.50;;;;;;4822112;29;20042;-68
2023/04/30 10:59:23;;;;;;;5.50;1.83;;;23.40;44.30;;;;;;4822418;29;20045;-67
2023/04/30 11:02:00;;;;;;;3.53;1.27;;;23.70;44.00;;;;;;4824461;29;20498;-66
2023/04/30 11:04:27;;;;;;;2.15;1.17;;;23.70;41.00;;;;;;4831555;29;20038;-67
2023/04/30 11:06:53;;;;;;;1.65;1.40;;;23.80;41.50;;;;;;4828036;29;20054;-67
2023/04/30 11:09:23;;;;;;;2.40;1.40;;;23.70;42.20;;;;;;4819784;29;20077;-67
2023/04/30 11:12:02;;;;;;;1.85;0.82;;;23.80;40.20;;;;;;4836054;29;20068;-68
2023/04/30 11:14:32;;;;;;;1.23;1.10;;;23.80;45.00;;;;;;4806839;29;20061;-68
2023/04/30 11:17:02;;;;;;;1.23;1.00;;;23.80;43.70;;;;;;4804450;29;20042;-68
2023/04/30 11:19:28;;;;;;;2.15;1.27;;;23.90;45.30;;;;;;4829671;29;20082;-68
2023/04/30 11:22:03;;;;;;;6.25;1.05;;;23.70;45.40;;;;;;4837492;29;20085;-68
2023/04/30 11:24:51;;;;;;;1.30;0.80;;;23.70;43.40;;;;;;4827956;29;20076;-68
2023/04/30 11:27:27;;;;;;;4.82;1.20;;;23.70;43.20;;;;;;4819709;29;20071;-68
2023/04/30 11:29:54;;;;;;;1.88;1.00;;;23.70;44.60;;;;;;4819274;29;20411;-68
2023/04/30 11:32:24;;;;;;;3.42;1.45;;;23.60;44.40;;;;;;4816856;29;20034;-68
2023/04/30 11:34:50;;;;;;;0.90;0.88;;;23.60;43.50;;;;;;4820654;29;20129;-68
2023/04/30 11:37:31;;;;;;;1.77;0.95;;;23.70;45.20;;;;;;4833665;29;20037;-68
2023/04/30 11:40:01;;;;;;;2.42;1.50;;;23.60;45.80;;;;;;4838396;29;20081;-68
2023/04/30 11:42:29;;;;;;;1.25;1.15;;;23.60;44.80;;;;;;4840090;29;20041;-69
2023/04/30 11:45:22;;;;;;;3.70;1.02;;;23.70;47.00;;;;;;4810521;29;20091;-69
2023/04/30 11:47:53;;;;;;;1.67;1.00;;;23.60;44.40;;;;;;4804211;29;20031;-69
2023/04/30 11:50:30;;;;;;;2.60;1.27;;;23.60;46.50;;;;;;4804021;29;20100;-69
2023/04/30 11:53:00;;;;;;;0.75;0.75;;;23.50;46.10;;;;;;4804410;29;20091;-70
2023/04/30 11:55:29;;;;;;;2.05;1.50;;;23.50;46.90;;;;;;4803909;29;21024;-69
2023/04/30 11:57:58;;;;;;;1.58;1.00;;;23.60;47.30;;;;;;4817952;29;20042;-69
2023/04/30 12:00:30;;;;;;;1.30;0.85;;;23.50;47.60;;;;;;4804167;29;20035;-69
2023/04/30 12:02:59;;;;;;;6.82;1.20;;;23.50;43.80;;;;;;4803871;29;20214;-69
2023/04/30 12:05:26;;;;;;;2.58;1.42;;;23.40;46.20;;;;;;4803920;29;20035;-69
2023/04/30 12:08:03;;;;;;;4.07;1.42;;;23.40;45.30;;;;;;4804025;29;20492;-69
2023/04/30 12:10:31;;;;;;;1.65;1.17;;;23.40;40.50;;;;;;4816104;29;20084;-68
2023/04/30 12:12:57;;;;;;;3.38;1.00;;;23.40;46.70;;;;;;4822248;29;20046;-70
2023/04/30 12:15:25;;;;;;;1.88;1.10;;;23.40;47.60;;;;;;4822068;29;20042;-69
2023/04/30 12:17:53;;;;;;;1.13;1.02;;;23.50;47.80;;;;;;4822062;29;20460;-69
2023/04/30 12:20:21;;;;;;;2.13;1.25;;;23.40;46.20;;;;;;4825404;29;20070;-68
2023/04/30 12:22:47;;;;;;;6.53;1.55;;;23.50;47.60;;;;;;4808060;29;20070;-68
2023/04/30 12:25:16;;;;;;;5.88;1.35;;;23.50;45.30;;;;;;4823792;29;20165;-73
2023/04/30 12:27:48;;;;;;;3.33;1.85;;;23.50;47.00;;;;;;4824249;29;20487;-71
2023/04/30 12:30:18;;;;;;;1.95;1.38;;;23.60;46.70;;;;;;4825169;29;20038;-69
2023/04/30 12:32:47;;;;;;;4.22;1.40;;;23.50;47.70;;;;;;4825774;29;20037;-71
2023/04/30 12:35:19;;;;;;;1.10;0.90;;;23.60;51.10;;;;;;4825425;29;20046;-70
2023/04/30 12:37:49;;;;;;;1.80;1.25;;;23.50;51.50;;;;;;4825179;29;20034;-68
2023/04/30 12:40:15;;;;;;;2.65;1.38;;;23.50;51.20;;;;;;4825364;29;20042;-67
2023/04/30 12:42:42;;;;;;;3.47;1.17;;;23.50;49.90;;;;;;4823891;29;20446;-65
2023/04/30 12:45:09;;;;;;;1.42;0.80;;;23.50;47.10;;;;;;4824762;29;20475;-66
2023/04/30 12:47:40;;;;;;;4.15;2.40;;;23.60;46.60;;;;;;4824754;29;20747;-66
2023/04/30 12:50:08;;;;;;;1.77;1.00;;;23.60;46.20;;;;;;4824793;29;20038;-64